sensor_id;sensor_type;location;lat;lon;timestamp;P1;durP1;ratioP1;P2;durP2;ratioP2
3257;SDS011;1641;51.306;12.384;2023-04-01T00:00:59;4.47;;;1.90;;
3257;SDS011;1641;51.306;12.384;2023-04-01T00:03:25;11.23;;;5.75;;
3257;SDS011;1641;51.306;12.384;2023-04-01T00:05:52;39.80;;;19.42;;
3257;SDS011;1641;51.306;12.384;2023-04-01T00:08:17;10.98;;;5.43;;
3257;SDS011;1641;51.306;12.384;2023-04-01T00:10:43;9.15;;;3.80;;
3257;SDS011;1641;51.306;12.384;2023-04-01T00:13:08;7.40;;;4.20;;
3257;SDS011;1641;51.306;12.384;2023-04-01T00:15:34;5.20;;;1.77;;
3257;SDS011;1641;51.306;12.384;2023-04-01T00:17:59;4.97;;;2.05;;
3257;SDS011;1641;51.306;12.384;2023-04-01T00:20:25;2.17;;;1.10;;
3257;SDS011;1641;51.306;12.384;2023-04-01T00:22:51;3.30;;;1.50;;
3257;SDS011;1641;51.306;12.384;2023-04-01T00:25:16;7.93;;;1.90;;
3257;SDS011;1641;51.306;12.384;2023-04-01T00:27:42;2.20;;;1.33;;
3257;SDS011;1641;51.306;12.384;2023-04-01T00:30:08;3.00;;;1.20;;
3257;SDS011;1641;51.306;12.384;2023-04-01T00:32:34;3.13;;;1.27;;
3257;SDS011;1641;51.306;12.384;2023-04-01T00:34:59;1.85;;;1.02;;
3257;SDS011;1641;51.306;12.384;2023-04-01T00:37:25;2.13;;;1.00;;
3257;SDS011;1641;51.306;12.384;2023-04-01T00:39:51;2.65;;;1.00;;
3257;SDS011;1641;51.306;12.384;2023-04-01T00:42:16;3.85;;;1.27;;
3257;SDS011;1641;51.306;12.384;2023-04-01T00:44:45;2.67;;;1.30;;
3257;SDS011;1641;51.306;12.384;2023-04-01T00:47:13;2.67;;;1.15;;
3257;SDS011;1641;51.306;12.384;2023-04-01T00:49:40;2.05;;;1.10;;
3257;SDS011;1641;51.306;12.384;2023-04-01T00:52:09;3.67;;;1.95;;
3257;SDS011;1641;51.306;12.384;2023-04-01T00:54:38;3.90;;;1.45;;
3257;SDS011;1641;51.306;12.384;2023-04-01T00:57:12;4.78;;;1.15;;
3257;SDS011;1641;51.306;12.384;2023-04-01T00:59:42;7.70;;;1.30;;
3257;SDS011;1641;51.306;12.384;2023-04-01T01:02:10;6.88;;;1.70;;
3257;SDS011;1641;51.306;12.384;2023-04-01T01:04:38;2.25;;;1.10;;
3257;SDS011;1641;51.306;12.384;2023-04-01T01:12:25;2.90;;;1.35;;
3257;SDS011;1641;51.306;12.384;2023-04-01T01:15:15;4.22;;;1.67;;
3257;SDS011;1641;51.306;12.384;2023-04-01T01:18:01;4.95;;;1.40;;
3257;SDS011;1641;51.306;12.384;2023-04-01T01:23:46;3.30;;;1.33;;
3257;SDS011;1641;51.306;12.384;2023-04-01T01:26:29;7.63;;;2.17;;
3257;SDS011;1641;51.306;12.384;2023-04-01T01:29:11;3.53;;;1.60;;
3257;SDS011;1641;51.306;12.384;2023-04-01T01:32:04;6.57;;;2.13;;
3257;SDS011;1641;51.306;12.384;2023-04-01T01:37:26;2.95;;;1.10;;
3257;SDS011;1641;51.306;12.384;2023-04-01T01:39:58;3.50;;;1.17;;
3257;SDS011;1641;51.306;12.384;2023-04-01T01:42:26;3.60;;;1.20;;
3257;SDS011;1641;51.306;12.384;2023-04-01T01:44:55;3.83;;;1.20;;
3257;SDS011;1641;51.306;12.384;2023-04-01T01:47:24;8.43;;;1.80;;
3257;SDS011;1641;51.306;12.384;2023-04-01T01:49:50;1.52;;;0.90;;
3257;SDS011;1641;51.306;12.384;2023-04-01T01:52:17;2.25;;;1.27;;
3257;SDS011;1641;51.306;12.384;2023-04-01T01:54:50;4.32;;;0.98;;
3257;SDS011;1641;51.306;12.384;2023-04-01T01:57:21;6.88;;;1.38;;
3257;SDS011;1641;51.306;12.384;2023-04-01T01:59:50;3.75;;;1.13;;
3257;SDS011;1641;51.306;12.384;2023-04-01T02:02:19;2.95;;;1.20;;
3257;SDS011;1641;51.306;12.384;2023-04-01T02:04:45;6.60;;;1.35;;
3257;SDS011;1641;51.306;12.384;2023-04-01T02:07:14;2.03;;;1.10;;
3257;SDS011;1641;51.306;12.384;2023-04-01T02:09:44;3.70;;;1.38;;
3257;SDS011;1641;51.306;12.384;2023-04-01T02:12:10;4.40;;;1.70;;
3257;SDS011;1641;51.306;12.384;2023-04-01T02:14:39;4.85;;;1.08;;
3257;SDS011;1641;51.306;12.384;2023-04-01T02:17:11;2.85;;;1.05;;
3257;SDS011;1641;51.306;12.384;2023-04-01T02:20:22;4.57;;;1.10;;
3257;SDS011;1641;51.306;12.384;2023-04-01T02:22:49;3.53;;;1.00;;
3257;SDS011;1641;51.306;12.384;2023-04-01T02:25:18;6.43;;;1.55;;
3257;SDS011;1641;51.306;12.384;2023-04-01T02:27:49;4.95;;;1.10;;
3257;SDS011;1641;51.306;12.384;2023-04-01T02:30:18;2.63;;;1.10;;
3257;SDS011;1641;51.306;12.384;2023-04-01T02:32:44;3.05;;;0.98;;
3257;SDS011;1641;51.306;12.384;2023-04-01T02:35:10;2.45;;;1.30;;
3257;SDS011;1641;51.306;12.384;2023-04-01T02:37:38;2.38;;;0.95;;
3257;SDS011;1641;51.306;12.384;2023-04-01T02:40:14;4.78;;;1.10;;
3257;SDS011;1641;51.306;12.384;2023-04-01T02:42:40;2.90;;;0.90;;
3257;SDS011;1641;51.306;12.384;2023-04-01T02:45:06;3.90;;;1.35;;
3257;SDS011;1641;51.306;12.384;2023-04-01T02:47:32;6.45;;;1.27;;
3257;SDS011;1641;51.306;12.384;2023-04-01T02:49:57;7.45;;;1.60;;
3257;SDS011;1641;51.306;12.384;2023-04-01T02:52:24;4.38;;;1.35;;
3257;SDS011;1641;51.306;12.384;2023-04-01T02:54:49;4.68;;;1.30;;
3257;SDS011;1641;51.306;12.384;2023-04-01T02:57:15;8.68;;;1.33;;
3257;SDS011;1641;51.306;12.384;2023-04-01T02:59:40;3.28;;;1.13;;
3257;SDS011;1641;51.306;12.384;2023-04-01T03:02:05;2.42;;;0.80;;
3257;SDS011;1641;51.306;12.384;2023-04-01T03:04:31;2.45;;;1.23;;
3257;SDS011;1641;51.306;12.384;2023-04-01T03:06:57;4.07;;;1.35;;
3257;SDS011;1641;51.306;12.384;2023-04-01T03:09:22;4.43;;;1.10;;
3257;SDS011;1641;51.306;12.384;2023-04-01T03:11:47;5.00;;;1.20;;
3257;SDS011;1641;51.306;12.384;2023-04-01T03:14:13;1.77;;;1.13;;
3257;SDS011;1641;51.306;12.384;2023-04-01T03:16:38;4.97;;;0.82;;
3257;SDS011;1641;51.306;12.384;2023-04-01T03:19:03;4.50;;;1.33;;
3257;SDS011;1641;51.306;12.384;2023-04-01T03:21:28;2.80;;;1.00;;
3257;SDS011;1641;51.306;12.384;2023-04-01T03:23:54;4.05;;;1.23;;
3257;SDS011;1641;51.306;12.384;2023-04-01T03:26:19;4.38;;;1.40;;
3257;SDS011;1641;51.306;12.384;2023-04-01T03:28:47;2.72;;;0.98;;
3257;SDS011;1641;51.306;12.384;2023-04-01T03:31:12;4.07;;;1.10;;
3257;SDS011;1641;51.306;12.384;2023-04-01T03:33:38;2.47;;;1.08;;
3257;SDS011;1641;51.306;12.384;2023-04-01T03:36:03;4.07;;;1.27;;
3257;SDS011;1641;51.306;12.384;2023-04-01T03:38:31;4.60;;;1.15;;
3257;SDS011;1641;51.306;12.384;2023-04-01T03:40:57;4.40;;;1.38;;
3257;SDS011;1641;51.306;12.384;2023-04-01T03:43:23;2.88;;;1.00;;
3257;SDS011;1641;51.306;12.384;2023-04-01T03:45:48;2.65;;;1.30;;
3257;SDS011;1641;51.306;12.384;2023-04-01T03:48:15;1.92;;;1.10;;
3257;SDS011;1641;51.306;12.384;2023-04-01T03:50:41;6.43;;;1.73;;
3257;SDS011;1641;51.306;12.384;2023-04-01T03:53:07;4.40;;;1.45;;
3257;SDS011;1641;51.306;12.384;2023-04-01T03:55:32;2.97;;;1.05;;
3257;SDS011;1641;51.306;12.384;2023-04-01T03:57:59;3.72;;;1.65;;
3257;SDS011;1641;51.306;12.384;2023-04-01T04:00:24;7.78;;;1.58;;
3257;SDS011;1641;51.306;12.384;2023-04-01T04:02:49;2.72;;;1.23;;
3257;SDS011;1641;51.306;12.384;2023-04-01T04:05:15;5.00;;;1.58;;
3257;SDS011;1641;51.306;12.384;2023-04-01T04:07:40;5.32;;;1.63;;
3257;SDS011;1641;51.306;12.384;2023-04-01T04:10:06;4.70;;;1.02;;
3257;SDS011;1641;51.306;12.384;2023-04-01T04:12:31;4.65;;;1.70;;
3257;SDS011;1641;51.306;12.384;2023-04-01T04:14:57;3.97;;;1.58;;
3257;SDS011;1641;51.306;12.384;2023-04-01T04:17:22;5.43;;;1.55;;
3257;SDS011;1641;51.306;12.384;2023-04-01T04:19:47;5.65;;;2.15;;
3257;SDS011;1641;51.306;12.384;2023-04-01T04:22:13;3.38;;;1.00;;
3257;SDS011;1641;51.306;12.384;2023-04-01T04:24:38;5.25;;;1.30;;
3257;SDS011;1641;51.306;12.384;2023-04-01T04:27:03;2.22;;;1.05;;
3257;SDS011;1641;51.306;12.384;2023-04-01T04:29:29;3.85;;;1.27;;
3257;SDS011;1641;51.306;12.384;2023-04-01T04:31:54;2.72;;;0.95;;
3257;SDS011;1641;51.306;12.384;2023-04-01T04:34:19;3.13;;;0.98;;
3257;SDS011;1641;51.306;12.384;2023-04-01T04:36:46;2.33;;;1.55;;
3257;SDS011;1641;51.306;12.384;2023-04-01T04:39:12;2.55;;;1.08;;
3257;SDS011;1641;51.306;12.384;2023-04-01T04:41:37;4.15;;;1.02;;
3257;SDS011;1641;51.306;12.384;2023-04-01T04:44:03;3.25;;;1.52;;
3257;SDS011;1641;51.306;12.384;2023-04-01T04:46:28;3.53;;;1.17;;
3257;SDS011;1641;51.306;12.384;2023-04-01T04:48:54;3.35;;;1.77;;
3257;SDS011;1641;51.306;12.384;2023-04-01T04:51:20;3.22;;;1.67;;
3257;SDS011;1641;51.306;12.384;2023-04-01T04:53:45;5.18;;;1.30;;
3257;SDS011;1641;51.306;12.384;2023-04-01T04:56:11;4.97;;;1.35;;
3257;SDS011;1641;51.306;12.384;2023-04-01T04:58:36;2.83;;;1.33;;
3257;SDS011;1641;51.306;12.384;2023-04-01T05:01:06;4.50;;;1.27;;
3257;SDS011;1641;51.306;12.384;2023-04-01T05:03:36;2.30;;;1.35;;
3257;SDS011;1641;51.306;12.384;2023-04-01T05:06:02;2.63;;;1.27;;
3257;SDS011;1641;51.306;12.384;2023-04-01T05:08:28;3.53;;;1.10;;
3257;SDS011;1641;51.306;12.384;2023-04-01T05:10:53;2.75;;;1.20;;
3257;SDS011;1641;51.306;12.384;2023-04-01T05:13:18;2.38;;;1.20;;
3257;SDS011;1641;51.306;12.384;2023-04-01T05:15:43;9.93;;;2.03;;
3257;SDS011;1641;51.306;12.384;2023-04-01T05:18:09;3.58;;;1.60;;
3257;SDS011;1641;51.306;12.384;2023-04-01T05:20:34;7.22;;;2.08;;
3257;SDS011;1641;51.306;12.384;2023-04-01T05:22:59;3.70;;;1.63;;
3257;SDS011;1641;51.306;12.384;2023-04-01T05:25:25;5.28;;;1.30;;
3257;SDS011;1641;51.306;12.384;2023-04-01T05:27:51;4.30;;;1.60;;
3257;SDS011;1641;51.306;12.384;2023-04-01T05:30:16;4.45;;;1.50;;
3257;SDS011;1641;51.306;12.384;2023-04-01T05:32:41;8.02;;;2.45;;
3257;SDS011;1641;51.306;12.384;2023-04-01T05:35:08;7.43;;;2.50;;
3257;SDS011;1641;51.306;12.384;2023-04-01T05:37:34;4.07;;;2.10;;
3257;SDS011;1641;51.306;12.384;2023-04-01T05:40:00;3.00;;;1.52;;
3257;SDS011;1641;51.306;12.384;2023-04-01T05:42:25;4.18;;;1.30;;
3257;SDS011;1641;51.306;12.384;2023-04-01T05:44:50;2.90;;;1.90;;
3257;SDS011;1641;51.306;12.384;2023-04-01T05:47:16;3.53;;;1.90;;
3257;SDS011;1641;51.306;12.384;2023-04-01T05:49:41;4.90;;;1.88;;
3257;SDS011;1641;51.306;12.384;2023-04-01T05:52:06;4.93;;;1.70;;
3257;SDS011;1641;51.306;12.384;2023-04-01T05:54:31;3.15;;;2.00;;
3257;SDS011;1641;51.306;12.384;2023-04-01T05:56:58;8.07;;;2.45;;
3257;SDS011;1641;51.306;12.384;2023-04-01T05:59:23;2.70;;;1.92;;
3257;SDS011;1641;51.306;12.384;2023-04-01T06:01:49;2.80;;;1.35;;
3257;SDS011;1641;51.306;12.384;2023-04-01T06:04:15;3.45;;;2.20;;
3257;SDS011;1641;51.306;12.384;2023-04-01T06:06:42;2.50;;;1.60;;
3257;SDS011;1641;51.306;12.384;2023-04-01T06:11:51;5.35;;;2.17;;
3257;SDS011;1641;51.306;12.384;2023-04-01T06:17:26;3.60;;;1.33;;
3257;SDS011;1641;51.306;12.384;2023-04-01T06:25:51;2.85;;;1.42;;
3257;SDS011;1641;51.306;12.384;2023-04-01T06:28:30;3.58;;;1.35;;
3257;SDS011;1641;51.306;12.384;2023-04-01T06:31:26;3.03;;;1.20;;
3257;SDS011;1641;51.306;12.384;2023-04-01T06:34:21;2.63;;;1.60;;
3257;SDS011;1641;51.306;12.384;2023-04-01T06:37:16;4.43;;;1.40;;
3257;SDS011;1641;51.306;12.384;2023-04-01T06:40:07;2.22;;;1.33;;
3257;SDS011;1641;51.306;12.384;2023-04-01T06:43:01;2.40;;;1.10;;
3257;SDS011;1641;51.306;12.384;2023-04-01T06:48:26;11.05;;;1.50;;
3257;SDS011;1641;51.306;12.384;2023-04-01T06:54:01;4.93;;;1.42;;
3257;SDS011;1641;51.306;12.384;2023-04-01T06:56:31;6.15;;;2.15;;
3257;SDS011;1641;51.306;12.384;2023-04-01T06:58:58;10.25;;;8.57;;
3257;SDS011;1641;51.306;12.384;2023-04-01T07:01:32;2.10;;;1.40;;
3257;SDS011;1641;51.306;12.384;2023-04-01T07:04:23;4.03;;;2.13;;
3257;SDS011;1641;51.306;12.384;2023-04-01T07:06:56;3.05;;;2.13;;
3257;SDS011;1641;51.306;12.384;2023-04-01T07:11:53;4.75;;;2.22;;
3257;SDS011;1641;51.306;12.384;2023-04-01T07:14:20;2.53;;;1.50;;
3257;SDS011;1641;51.306;12.384;2023-04-01T07:16:58;2.47;;;0.88;;
3257;SDS011;1641;51.306;12.384;2023-04-01T07:19:35;4.25;;;2.17;;
3257;SDS011;1641;51.306;12.384;2023-04-01T07:22:16;4.10;;;1.20;;
3257;SDS011;1641;51.306;12.384;2023-04-01T07:24:57;4.43;;;1.23;;
3257;SDS011;1641;51.306;12.384;2023-04-01T07:27:26;2.47;;;1.70;;
3257;SDS011;1641;51.306;12.384;2023-04-01T07:29:51;8.18;;;1.27;;
3257;SDS011;1641;51.306;12.384;2023-04-01T07:32:32;6.90;;;1.25;;
3257;SDS011;1641;51.306;12.384;2023-04-01T07:35:22;4.50;;;2.58;;
3257;SDS011;1641;51.306;12.384;2023-04-01T07:43:56;2.05;;;1.30;;
3257;SDS011;1641;51.306;12.384;2023-04-01T07:49:08;3.17;;;1.20;;
3257;SDS011;1641;51.306;12.384;2023-04-01T07:56:50;2.20;;;2.00;;
3257;SDS011;1641;51.306;12.384;2023-04-01T07:59:29;2.08;;;1.35;;
3257;SDS011;1641;51.306;12.384;2023-04-01T08:02:21;6.03;;;1.17;;
3257;SDS011;1641;51.306;12.384;2023-04-01T08:05:04;4.13;;;1.75;;
3257;SDS011;1641;51.306;12.384;2023-04-01T08:13:39;5.57;;;1.55;;
3257;SDS011;1641;51.306;12.384;2023-04-01T08:16:35;2.15;;;1.27;;
3257;SDS011;1641;51.306;12.384;2023-04-01T08:22:21;3.40;;;1.35;;
3257;SDS011;1641;51.306;12.384;2023-04-01T08:24:54;4.40;;;0.90;;
3257;SDS011;1641;51.306;12.384;2023-04-01T08:27:34;1.10;;;0.93;;
3257;SDS011;1641;51.306;12.384;2023-04-01T08:30:21;4.63;;;2.00;;
3257;SDS011;1641;51.306;12.384;2023-04-01T08:32:56;3.15;;;2.17;;
3257;SDS011;1641;51.306;12.384;2023-04-01T08:35:30;1.75;;;1.10;;
3257;SDS011;1641;51.306;12.384;2023-04-01T08:38:06;3.63;;;1.10;;
3257;SDS011;1641;51.306;12.384;2023-04-01T08:40:55;1.20;;;0.70;;
3257;SDS011;1641;51.306;12.384;2023-04-01T08:46:26;2.28;;;0.90;;
3257;SDS011;1641;51.306;12.384;2023-04-01T08:52:07;4.78;;;2.08;;
3257;SDS011;1641;51.306;12.384;2023-04-01T08:55:03;2.42;;;0.80;;
3257;SDS011;1641;51.306;12.384;2023-04-01T08:57:45;1.33;;;0.90;;
3257;SDS011;1641;51.306;12.384;2023-04-01T09:00:33;2.55;;;0.90;;
3257;SDS011;1641;51.306;12.384;2023-04-01T09:03:19;2.65;;;0.80;;
3257;SDS011;1641;51.306;12.384;2023-04-01T09:11:28;2.45;;;0.90;;
3257;SDS011;1641;51.306;12.384;2023-04-01T09:14:23;4.00;;;0.68;;
3257;SDS011;1641;51.306;12.384;2023-04-01T09:19:33;1.55;;;0.60;;
3257;SDS011;1641;51.306;12.384;2023-04-01T09:25:22;1.27;;;0.57;;
3257;SDS011;1641;51.306;12.384;2023-04-01T09:28:01;1.35;;;0.75;;
3257;SDS011;1641;51.306;12.384;2023-04-01T09:36:26;2.55;;;0.80;;
3257;SDS011;1641;51.306;12.384;2023-04-01T09:39:16;2.90;;;0.85;;
3257;SDS011;1641;51.306;12.384;2023-04-01T09:42:06;1.48;;;0.80;;
3257;SDS011;1641;51.306;12.384;2023-04-01T09:45:00;1.00;;;0.73;;
3257;SDS011;1641;51.306;12.384;2023-04-01T09:58:33;4.00;;;0.70;;
3257;SDS011;1641;51.306;12.384;2023-04-01T10:04:08;2.50;;;1.10;;
3257;SDS011;1641;51.306;12.384;2023-04-01T10:13:07;1.27;;;1.15;;
3257;SDS011;1641;51.306;12.384;2023-04-01T10:18:56;1.63;;;0.80;;
3257;SDS011;1641;51.306;12.384;2023-04-01T10:24:31;2.22;;;0.82;;
3257;SDS011;1641;51.306;12.384;2023-04-01T10:35:47;2.05;;;0.80;;
3257;SDS011;1641;51.306;12.384;2023-04-01T10:44:26;3.17;;;1.17;;
3257;SDS011;1641;51.306;12.384;2023-04-01T10:53:38;3.42;;;0.68;;
3257;SDS011;1641;51.306;12.384;2023-04-01T11:10:41;0.57;;;0.38;;
3257;SDS011;1641;51.306;12.384;2023-04-01T11:19:02;0.95;;;0.50;;
3257;SDS011;1641;51.306;12.384;2023-04-01T11:24:58;1.20;;;0.82;;
3257;SDS011;1641;51.306;12.384;2023-04-01T11:39:59;0.95;;;0.50;;
3257;SDS011;1641;51.306;12.384;2023-04-01T11:42:43;0.77;;;0.60;;
3257;SDS011;1641;51.306;12.384;2023-04-01T11:54:09;2.42;;;0.68;;
3257;SDS011;1641;51.306;12.384;2023-04-01T11:56:52;1.40;;;0.68;;
3257;SDS011;1641;51.306;12.384;2023-04-01T11:59:50;0.93;;;0.60;;
3257;SDS011;1641;51.306;12.384;2023-04-01T12:16:38;1.77;;;0.70;;
3257;SDS011;1641;51.306;12.384;2023-04-01T12:33:13;2.85;;;2.40;;
3257;SDS011;1641;51.306;12.384;2023-04-01T12:38:57;3.35;;;1.27;;
3257;SDS011;1641;51.306;12.384;2023-04-01T12:44:42;3.42;;;1.20;;
3257;SDS011;1641;51.306;12.384;2023-04-01T12:50:31;3.20;;;1.00;;
3257;SDS011;1641;51.306;12.384;2023-04-01T12:59:47;1.20;;;0.40;;
3257;SDS011;1641;51.306;12.384;2023-04-01T13:08:12;1.13;;;0.75;;
3257;SDS011;1641;51.306;12.384;2023-04-01T13:10:56;1.02;;;0.70;;
3257;SDS011;1641;51.306;12.384;2023-04-01T13:16:33;1.08;;;0.60;;
3257;SDS011;1641;51.306;12.384;2023-04-01T13:19:06;1.47;;;0.40;;
3257;SDS011;1641;51.306;12.384;2023-04-01T13:24:59;0.90;;;0.60;;
3257;SDS011;1641;51.306;12.384;2023-04-01T13:27:30;1.13;;;0.80;;
3257;SDS011;1641;51.306;12.384;2023-04-01T13:35:28;1.87;;;0.80;;
3257;SDS011;1641;51.306;12.384;2023-04-01T13:40:39;1.00;;;0.60;;
3257;SDS011;1641;51.306;12.384;2023-04-01T13:43:26;2.17;;;0.77;;
3257;SDS011;1641;51.306;12.384;2023-04-01T13:46:05;2.67;;;0.90;;
3257;SDS011;1641;51.306;12.384;2023-04-01T14:00:37;3.22;;;1.17;;
3257;SDS011;1641;51.306;12.384;2023-04-01T14:03:20;1.13;;;0.70;;
3257;SDS011;1641;51.306;12.384;2023-04-01T14:06:02;2.15;;;1.00;;
3257;SDS011;1641;51.306;12.384;2023-04-01T14:08:39;0.60;;;0.60;;
3257;SDS011;1641;51.306;12.384;2023-04-01T14:11:31;0.40;;;0.40;;
3257;SDS011;1641;51.306;12.384;2023-04-01T14:14:35;1.02;;;0.50;;
3257;SDS011;1641;51.306;12.384;2023-04-01T14:17:27;0.82;;;0.68;;
3257;SDS011;1641;51.306;12.384;2023-04-01T14:20:22;1.48;;;0.60;;
3257;SDS011;1641;51.306;12.384;2023-04-01T14:31:31;0.95;;;0.80;;
3257;SDS011;1641;51.306;12.384;2023-04-01T14:37:10;1.42;;;1.33;;
3257;SDS011;1641;51.306;12.384;2023-04-01T14:42:48;1.40;;;1.02;;
3257;SDS011;1641;51.306;12.384;2023-04-01T14:45:34;1.30;;;0.70;;
3257;SDS011;1641;51.306;12.384;2023-04-01T14:51:09;1.35;;;0.70;;
3257;SDS011;1641;51.306;12.384;2023-04-01T14:53:49;0.77;;;0.77;;
3257;SDS011;1641;51.306;12.384;2023-04-01T14:56:40;0.85;;;0.70;;
3257;SDS011;1641;51.306;12.384;2023-04-01T15:12:51;1.10;;;1.00;;
3257;SDS011;1641;51.306;12.384;2023-04-01T15:18:09;1.30;;;0.90;;
3257;SDS011;1641;51.306;12.384;2023-04-01T15:20:52;0.75;;;0.73;;
3257;SDS011;1641;51.306;12.384;2023-04-01T15:32:17;1.38;;;0.80;;
3257;SDS011;1641;51.306;12.384;2023-04-01T15:57:40;9.13;;;8.23;;
3257;SDS011;1641;51.306;12.384;2023-04-01T16:21:53;4.30;;;3.90;;
3257;SDS011;1641;51.306;12.384;2023-04-01T16:24:43;2.10;;;1.88;;
3257;SDS011;1641;51.306;12.384;2023-04-01T16:35:40;2.92;;;1.65;;
3257;SDS011;1641;51.306;12.384;2023-04-01T16:41:11;17.25;;;7.82;;
3257;SDS011;1641;51.306;12.384;2023-04-01T16:43:44;6.28;;;3.28;;
3257;SDS011;1641;51.306;12.384;2023-04-01T16:46:26;3.17;;;2.17;;
3257;SDS011;1641;51.306;12.384;2023-04-01T16:57:10;8.20;;;3.58;;
3257;SDS011;1641;51.306;12.384;2023-04-01T16:59:55;22.08;;;11.20;;
3257;SDS011;1641;51.306;12.384;2023-04-01T17:02:44;6.50;;;4.32;;
3257;SDS011;1641;51.306;12.384;2023-04-01T17:05:17;5.85;;;3.03;;
3257;SDS011;1641;51.306;12.384;2023-04-01T17:12:56;2.00;;;1.52;;
3257;SDS011;1641;51.306;12.384;2023-04-01T17:21:00;3.33;;;1.73;;
3257;SDS011;1641;51.306;12.384;2023-04-01T17:26:50;3.10;;;1.83;;
3257;SDS011;1641;51.306;12.384;2023-04-01T17:35:16;3.65;;;2.47;;
3257;SDS011;1641;51.306;12.384;2023-04-01T17:43:56;15.35;;;10.43;;
3257;SDS011;1641;51.306;12.384;2023-04-01T17:52:05;2.65;;;1.70;;
3257;SDS011;1641;51.306;12.384;2023-04-01T17:57:39;3.15;;;1.80;;
3257;SDS011;1641;51.306;12.384;2023-04-01T18:02:53;4.50;;;2.67;;
3257;SDS011;1641;51.306;12.384;2023-04-01T18:06:03;3.70;;;2.50;;
3257;SDS011;1641;51.306;12.384;2023-04-01T18:23:40;9.05;;;2.97;;
3257;SDS011;1641;51.306;12.384;2023-04-01T18:26:23;7.13;;;2.53;;
3257;SDS011;1641;51.306;12.384;2023-04-01T18:28:54;3.40;;;2.35;;
3257;SDS011;1641;51.306;12.384;2023-04-01T18:31:38;2.90;;;2.60;;
3257;SDS011;1641;51.306;12.384;2023-04-01T18:39:33;3.63;;;2.60;;
3257;SDS011;1641;51.306;12.384;2023-04-01T18:42:27;6.65;;;2.50;;
3257;SDS011;1641;51.306;12.384;2023-04-01T18:50:59;2.47;;;2.25;;
3257;SDS011;1641;51.306;12.384;2023-04-01T18:59:01;1.92;;;1.80;;
3257;SDS011;1641;51.306;12.384;2023-04-01T19:01:37;4.25;;;1.95;;
3257;SDS011;1641;51.306;12.384;2023-04-01T19:04:22;2.15;;;1.92;;
3257;SDS011;1641;51.306;12.384;2023-04-01T19:06:54;1.92;;;1.67;;
3257;SDS011;1641;51.306;12.384;2023-04-01T19:14:41;5.03;;;1.88;;
3257;SDS011;1641;51.306;12.384;2023-04-01T19:20:51;2.13;;;1.90;;
3257;SDS011;1641;51.306;12.384;2023-04-01T19:23:31;3.42;;;2.28;;
3257;SDS011;1641;51.306;12.384;2023-04-01T19:26:14;3.05;;;2.72;;
3257;SDS011;1641;51.306;12.384;2023-04-01T19:31:34;4.60;;;3.17;;
3257;SDS011;1641;51.306;12.384;2023-04-01T19:34:24;3.42;;;3.13;;
3257;SDS011;1641;51.306;12.384;2023-04-01T19:36:57;3.42;;;3.13;;
3257;SDS011;1641;51.306;12.384;2023-04-01T19:41:58;4.95;;;4.10;;
3257;SDS011;1641;51.306;12.384;2023-04-01T19:44:52;5.07;;;3.55;;
3257;SDS011;1641;51.306;12.384;2023-04-01T19:52:52;4.70;;;4.30;;
3257;SDS011;1641;51.306;12.384;2023-04-01T19:58:14;3.17;;;2.88;;
3257;SDS011;1641;51.306;12.384;2023-04-01T20:00:47;6.68;;;3.55;;
3257;SDS011;1641;51.306;12.384;2023-04-01T20:03:25;3.65;;;3.30;;
3257;SDS011;1641;51.306;12.384;2023-04-01T20:08:59;4.43;;;3.67;;
3257;SDS011;1641;51.306;12.384;2023-04-01T20:12:04;6.75;;;2.97;;
3257;SDS011;1641;51.306;12.384;2023-04-01T20:25:21;6.88;;;5.68;;
3257;SDS011;1641;51.306;12.384;2023-04-01T20:30:41;6.15;;;5.13;;
3257;SDS011;1641;51.306;12.384;2023-04-01T20:36:06;5.43;;;4.93;;
3257;SDS011;1641;51.306;12.384;2023-04-01T20:38:58;6.00;;;4.28;;
3257;SDS011;1641;51.306;12.384;2023-04-01T20:44:20;8.02;;;6.10;;
3257;SDS011;1641;51.306;12.384;2023-04-01T20:47:08;7.80;;;6.65;;
3257;SDS011;1641;51.306;12.384;2023-04-01T20:55:18;9.03;;;8.13;;
3257;SDS011;1641;51.306;12.384;2023-04-01T21:00:31;5.95;;;5.32;;
3257;SDS011;1641;51.306;12.384;2023-04-01T21:05:31;7.90;;;6.33;;
3257;SDS011;1641;51.306;12.384;2023-04-01T21:13:45;7.63;;;6.85;;
3257;SDS011;1641;51.306;12.384;2023-04-01T21:19:31;7.35;;;6.20;;
3257;SDS011;1641;51.306;12.384;2023-04-01T21:28:05;7.28;;;6.00;;
3257;SDS011;1641;51.306;12.384;2023-04-01T21:30:42;7.60;;;4.03;;
3257;SDS011;1641;51.306;12.384;2023-04-01T21:33:26;5.68;;;4.30;;
3257;SDS011;1641;51.306;12.384;2023-04-01T21:36:02;5.88;;;5.20;;
3257;SDS011;1641;51.306;12.384;2023-04-01T21:38:38;4.85;;;3.63;;
3257;SDS011;1641;51.306;12.384;2023-04-01T21:41:09;5.75;;;4.45;;
3257;SDS011;1641;51.306;12.384;2023-04-01T21:43:45;6.07;;;5.22;;
3257;SDS011;1641;51.306;12.384;2023-04-01T21:46:45;4.35;;;3.80;;
3257;SDS011;1641;51.306;12.384;2023-04-01T21:49:43;7.13;;;5.18;;
3257;SDS011;1641;51.306;12.384;2023-04-01T21:55:42;9.90;;;5.47;;
3257;SDS011;1641;51.306;12.384;2023-04-01T22:07:15;7.57;;;6.15;;
3257;SDS011;1641;51.306;12.384;2023-04-01T22:09:52;6.57;;;5.65;;
3257;SDS011;1641;51.306;12.384;2023-04-01T22:12:28;5.97;;;5.32;;
3257;SDS011;1641;51.306;12.384;2023-04-01T22:15:05;6.40;;;4.43;;
3257;SDS011;1641;51.306;12.384;2023-04-01T22:17:50;11.02;;;7.20;;
3257;SDS011;1641;51.306;12.384;2023-04-01T22:20:33;9.10;;;7.28;;
3257;SDS011;1641;51.306;12.384;2023-04-01T22:26:02;7.88;;;6.13;;
3257;SDS011;1641;51.306;12.384;2023-04-01T22:28:51;5.57;;;4.53;;
3257;SDS011;1641;51.306;12.384;2023-04-01T22:31:27;6.10;;;4.72;;
3257;SDS011;1641;51.306;12.384;2023-04-01T22:34:10;5.82;;;4.38;;
3257;SDS011;1641;51.306;12.384;2023-04-01T22:42:11;6.13;;;5.38;;
3257;SDS011;1641;51.306;12.384;2023-04-01T22:44:50;5.97;;;5.38;;
3257;SDS011;1641;51.306;12.384;2023-04-01T22:52:46;6.32;;;4.40;;
3257;SDS011;1641;51.306;12.384;2023-04-01T22:55:20;4.65;;;3.83;;
3257;SDS011;1641;51.306;12.384;2023-04-01T22:57:52;7.90;;;5.05;;
3257;SDS011;1641;51.306;12.384;2023-04-01T23:00:27;6.97;;;5.50;;
3257;SDS011;1641;51.306;12.384;2023-04-01T23:03:08;5.43;;;4.05;;
3257;SDS011;1641;51.306;12.384;2023-04-01T23:05:57;5.85;;;4.90;;
3257;SDS011;1641;51.306;12.384;2023-04-01T23:08:34;4.85;;;3.88;;
3257;SDS011;1641;51.306;12.384;2023-04-01T23:11:06;4.78;;;4.10;;
3257;SDS011;1641;51.306;12.384;2023-04-01T23:13:38;7.20;;;4.95;;
3257;SDS011;1641;51.306;12.384;2023-04-01T23:16:06;4.22;;;3.83;;
3257;SDS011;1641;51.306;12.384;2023-04-01T23:18:49;4.43;;;3.95;;
3257;SDS011;1641;51.306;12.384;2023-04-01T23:21:22;4.43;;;3.42;;
3257;SDS011;1641;51.306;12.384;2023-04-01T23:24:03;5.38;;;4.68;;
3257;SDS011;1641;51.306;12.384;2023-04-01T23:29:03;5.37;;;4.23;;
3257;SDS011;1641;51.306;12.384;2023-04-01T23:34:04;4.50;;;3.17;;
3257;SDS011;1641;51.306;12.384;2023-04-01T23:36:30;4.90;;;3.20;;
3257;SDS011;1641;51.306;12.384;2023-04-01T23:39:03;5.53;;;4.32;;
3257;SDS011;1641;51.306;12.384;2023-04-01T23:41:46;5.60;;;5.05;;
3257;SDS011;1641;51.306;12.384;2023-04-01T23:44:12;4.07;;;3.42;;
3257;SDS011;1641;51.306;12.384;2023-04-01T23:46:42;4.35;;;3.95;;
3257;SDS011;1641;51.306;12.384;2023-04-01T23:49:16;7.35;;;5.68;;
3257;SDS011;1641;51.306;12.384;2023-04-01T23:52:19;6.22;;;4.68;;
3257;SDS011;1641;51.306;12.384;2023-04-01T23:54:43;6.13;;;4.90;;
3257;SDS011;1641;51.306;12.384;2023-04-01T23:57:14;7.55;;;3.85;;
3257;SDS011;1641;51.306;12.384;2023-04-01T23:59:43;6.53;;;4.65;;
